createdAt,value
2019-01-09T00:00:51.980Z,2.17
2019-01-09T00:03:20.123Z,2.20
2019-01-09T00:05:48.259Z,2.45
2019-01-09T00:08:16.591Z,1.17
2019-01-09T00:10:44.703Z,1.02
2019-01-09T00:13:12.858Z,1.60
2019-01-09T00:15:40.990Z,1.62
2019-01-09T00:18:09.117Z,1.90
2019-01-09T00:20:37.347Z,1.85
2019-01-09T00:23:05.450Z,1.07
2019-01-09T00:25:33.564Z,1.07
2019-01-09T00:28:02.422Z,1.77
2019-01-09T00:30:30.516Z,1.40
2019-01-09T00:32:58.643Z,1.80
2019-01-09T00:35:26.751Z,2.10
2019-01-09T00:37:55.100Z,1.25
2019-01-09T00:40:23.411Z,1.35
2019-01-09T00:42:51.522Z,1.27
2019-01-09T00:45:19.757Z,0.95
2019-01-09T00:47:47.859Z,1.17
2019-01-09T00:50:16.228Z,1.55
2019-01-09T00:52:44.328Z,1.40
2019-01-09T00:55:12.651Z,1.62
2019-01-09T00:57:40.795Z,2.22
2019-01-09T01:00:10.734Z,1.20
2019-01-09T01:02:52.710Z,1.50
2019-01-09T01:05:52.364Z,0.95
2019-01-09T01:08:38.235Z,1.10
2019-01-09T01:11:31.675Z,1.32
2019-01-09T01:14:21.726Z,1.20
2019-01-09T01:17:04.027Z,1.40
2019-01-09T01:19:49.823Z,1.42
2019-01-09T01:22:52.314Z,0.80
2019-01-09T01:25:39.659Z,1.40
2019-01-09T01:28:29.712Z,2.02
2019-01-09T01:31:15.944Z,1.50
2019-01-09T01:34:06.408Z,1.77
2019-01-09T01:36:57.715Z,1.72
2019-01-09T01:39:43.933Z,2.98
2019-01-09T01:42:30.075Z,1.30
2019-01-09T01:45:16.036Z,1.92
2019-01-09T01:47:58.719Z,1.50
2019-01-09T01:50:48.679Z,1.10
2019-01-09T01:53:30.281Z,1.77
2019-01-09T01:56:02.930Z,1.02
2019-01-09T01:59:08.296Z,1.20
2019-01-09T02:01:46.173Z,0.85
2019-01-09T02:04:39.367Z,1.17
2019-01-09T02:07:25.499Z,1.37
2019-01-09T02:10:07.338Z,1.50
2019-01-09T02:12:50.174Z,1.32
2019-01-09T02:15:35.979Z,0.80
2019-01-09T02:18:22.011Z,0.72
2019-01-09T02:21:07.231Z,0.62
2019-01-09T02:23:40.191Z,1.10
2019-01-09T02:26:14.519Z,1.77
2019-01-09T02:28:54.578Z,1.20
2019-01-09T02:31:30.303Z,1.05
2019-01-09T02:33:58.418Z,1.32
2019-01-09T02:36:26.528Z,0.70
2019-01-09T02:38:54.655Z,0.75
2019-01-09T02:41:22.792Z,1.00
2019-01-09T02:43:50.960Z,1.30
2019-01-09T02:46:19.121Z,0.75
2019-01-09T02:48:48.760Z,1.10
2019-01-09T02:51:17.080Z,0.80
2019-01-09T02:53:45.397Z,0.95
2019-01-09T02:56:13.503Z,1.10
2019-01-09T02:58:41.611Z,1.05
2019-01-09T03:01:09.759Z,1.42
2019-01-09T03:03:37.894Z,0.60
2019-01-09T03:06:06.035Z,0.78
2019-01-09T03:08:34.176Z,0.70
2019-01-09T03:11:02.308Z,0.60
2019-01-09T03:13:30.418Z,0.50
2019-01-09T03:15:58.536Z,1.00
2019-01-09T03:18:26.667Z,0.78
2019-01-09T03:20:54.775Z,0.90
2019-01-09T03:23:23.039Z,0.93
2019-01-09T03:25:51.140Z,0.90
2019-01-09T03:28:19.307Z,0.90
2019-01-09T03:30:47.428Z,0.75
2019-01-09T03:33:15.540Z,1.00
2019-01-09T03:35:43.686Z,1.00
2019-01-09T03:38:11.803Z,0.60
2019-01-09T03:40:40.122Z,1.45
2019-01-09T03:43:08.236Z,0.72
2019-01-09T03:45:36.385Z,0.90
2019-01-09T03:48:04.505Z,0.65
2019-01-09T03:50:32.712Z,0.90
2019-01-09T03:53:00.828Z,0.45
2019-01-09T03:55:28.948Z,0.70
2019-01-09T03:57:57.144Z,0.50
2019-01-09T04:00:25.283Z,0.88
2019-01-09T04:02:53.414Z,0.65
2019-01-09T04:05:21.538Z,1.00
2019-01-09T04:07:49.702Z,1.00
2019-01-09T04:10:17.864Z,0.75
2019-01-09T04:12:45.972Z,0.88
2019-01-09T04:15:14.605Z,0.90
2019-01-09T04:17:42.715Z,1.10
2019-01-09T04:20:10.860Z,1.32
2019-01-09T04:22:38.971Z,1.30
2019-01-09T04:25:07.247Z,1.05
2019-01-09T04:27:35.352Z,1.47
2019-01-09T04:30:03.462Z,1.20
2019-01-09T04:32:31.597Z,1.25
2019-01-09T04:34:59.713Z,1.60
2019-01-09T04:37:27.862Z,1.37
2019-01-09T04:39:56.112Z,1.07
2019-01-09T04:42:24.321Z,1.45
2019-01-09T04:44:52.368Z,1.20
2019-01-09T04:47:20.491Z,1.10
2019-01-09T04:49:48.627Z,1.17
2019-01-09T04:52:16.753Z,1.10
2019-01-09T04:54:44.899Z,1.45
2019-01-09T04:57:13.038Z,0.90
2019-01-09T04:59:41.195Z,0.93
2019-01-09T05:02:09.332Z,1.17
2019-01-09T05:04:37.490Z,0.90
2019-01-09T05:07:05.673Z,0.85
2019-01-09T05:09:33.819Z,0.50
2019-01-09T05:12:02.109Z,0.50
2019-01-09T05:14:30.248Z,0.40
2019-01-09T05:16:58.395Z,0.40
2019-01-09T05:19:26.528Z,0.40
2019-01-09T05:21:54.717Z,0.50
2019-01-09T05:24:22.835Z,0.40
2019-01-09T05:26:50.960Z,0.40
2019-01-09T05:29:19.119Z,0.45
2019-01-09T05:31:47.294Z,0.50
2019-01-09T05:34:15.473Z,0.50
2019-01-09T05:36:43.655Z,0.50
2019-01-09T05:39:11.783Z,0.70
2019-01-09T05:41:40.011Z,1.40
2019-01-09T05:44:08.149Z,0.90
2019-01-09T05:46:36.275Z,1.07
2019-01-09T05:49:04.432Z,1.00
2019-01-09T05:51:32.554Z,1.20
2019-01-09T05:54:00.679Z,0.80
2019-01-09T05:56:28.835Z,0.82
2019-01-09T05:58:56.954Z,0.80
2019-01-09T06:01:25.095Z,0.80
2019-01-09T06:03:53.637Z,0.60
2019-01-09T06:06:21.772Z,0.80
2019-01-09T06:08:50.008Z,1.02
2019-01-09T06:11:18.230Z,0.80
2019-01-09T06:13:46.354Z,0.60
2019-01-09T06:16:14.553Z,0.70
2019-01-09T06:18:42.675Z,0.65
2019-01-09T06:21:10.783Z,0.98
2019-01-09T06:23:38.918Z,0.93
2019-01-09T06:26:07.038Z,1.02
2019-01-09T06:28:35.172Z,1.05
2019-01-09T06:31:03.299Z,1.10
2019-01-09T06:33:31.614Z,0.70
2019-01-09T06:35:59.717Z,0.75
2019-01-09T06:38:27.829Z,0.90
2019-01-09T06:40:55.965Z,0.68
2019-01-09T06:43:24.068Z,0.65
2019-01-09T06:45:52.216Z,1.05
2019-01-09T06:48:20.340Z,1.22
2019-01-09T06:50:48.479Z,0.80
2019-01-09T06:53:16.632Z,1.00
2019-01-09T06:55:44.777Z,0.85
2019-01-09T06:58:12.859Z,0.80
2019-01-09T07:00:40.966Z,1.62
2019-01-09T07:03:09.098Z,0.75
2019-01-09T07:05:37.201Z,1.70
2019-01-09T07:08:05.352Z,1.10
2019-01-09T07:10:33.523Z,1.45
2019-01-09T07:13:01.679Z,1.40
2019-01-09T07:15:29.825Z,1.00
2019-01-09T07:17:57.939Z,1.50
2019-01-09T07:20:26.088Z,1.50
2019-01-09T07:22:54.202Z,1.10
2019-01-09T07:25:22.343Z,1.25
2019-01-09T07:27:50.460Z,1.17
2019-01-09T07:30:18.650Z,0.98
2019-01-09T07:32:46.783Z,1.12
2019-01-09T07:35:15.046Z,0.95
2019-01-09T07:37:45.445Z,1.22
2019-01-09T07:40:13.099Z,1.05
2019-01-09T07:42:41.257Z,1.40
2019-01-09T07:45:09.915Z,1.27
2019-01-09T07:47:38.073Z,1.60
2019-01-09T07:50:06.979Z,2.02
2019-01-09T07:52:35.113Z,0.95
2019-01-09T07:55:03.333Z,1.32
2019-01-09T07:57:31.442Z,1.40
2019-01-09T07:59:59.583Z,1.02
2019-01-09T08:02:27.690Z,1.30
2019-01-09T08:04:55.846Z,1.02
2019-01-09T08:07:24.027Z,1.60
2019-01-09T08:09:52.223Z,1.05
2019-01-09T08:12:20.382Z,1.82
2019-01-09T08:14:48.490Z,1.30
2019-01-09T08:17:16.630Z,2.02
2019-01-09T08:19:44.734Z,1.60
2019-01-09T08:22:12.871Z,1.85
2019-01-09T08:24:40.984Z,1.70
2019-01-09T08:27:09.119Z,1.05
2019-01-09T08:29:37.219Z,1.50
2019-01-09T08:32:05.484Z,1.72
2019-01-09T08:34:33.610Z,1.62
2019-01-09T08:37:01.723Z,1.02
2019-01-09T08:39:29.891Z,1.37
2019-01-09T08:41:58.271Z,1.37
2019-01-09T08:44:26.357Z,1.32
2019-01-09T08:46:54.449Z,2.10
2019-01-09T08:49:22.583Z,1.52
2019-01-09T08:51:50.689Z,1.20
2019-01-09T08:54:18.987Z,1.25
2019-01-09T08:56:47.325Z,1.10
2019-01-09T08:59:15.427Z,1.87
2019-01-09T09:01:43.613Z,1.30
2019-01-09T09:04:11.719Z,1.60
2019-01-09T09:06:39.899Z,1.42
2019-01-09T09:09:08.596Z,1.72
2019-01-09T09:11:36.761Z,1.47
2019-01-09T09:14:04.991Z,2.05
2019-01-09T09:16:36.778Z,1.32
2019-01-09T09:19:03.042Z,1.60
2019-01-09T09:21:31.145Z,2.20
2019-01-09T09:23:59.279Z,1.60
2019-01-09T09:26:27.384Z,1.80
2019-01-09T09:28:55.518Z,2.17
2019-01-09T09:31:23.650Z,1.20
2019-01-09T09:33:52.241Z,2.25
2019-01-09T09:36:20.429Z,1.50
2019-01-09T09:38:48.657Z,1.60
2019-01-09T09:41:16.795Z,1.77
2019-01-09T09:43:44.900Z,1.20
2019-01-09T09:46:13.043Z,1.22
2019-01-09T09:48:41.183Z,1.47
2019-01-09T09:51:09.404Z,1.50
2019-01-09T09:53:37.573Z,1.22
2019-01-09T09:56:05.666Z,0.90
2019-01-09T09:58:33.770Z,1.90
2019-01-09T10:01:01.872Z,1.85
2019-01-09T10:03:30.017Z,1.22
2019-01-09T10:05:58.151Z,1.17
2019-01-09T10:08:29.511Z,1.25
2019-01-09T10:10:56.061Z,0.98
2019-01-09T10:13:24.237Z,1.37
2019-01-09T10:15:52.348Z,1.10
2019-01-09T10:18:20.599Z,1.35
2019-01-09T10:20:48.869Z,0.80
2019-01-09T10:23:17.001Z,1.60
2019-01-09T10:25:45.178Z,1.37
2019-01-09T10:28:13.271Z,1.22
2019-01-09T10:30:41.397Z,1.10
2019-01-09T10:33:09.502Z,1.27
2019-01-09T10:35:37.932Z,0.90
2019-01-09T10:38:06.072Z,1.70
2019-01-09T10:40:36.254Z,1.60
2019-01-09T10:43:03.976Z,1.70
2019-01-09T10:45:32.094Z,1.30
2019-01-09T10:48:00.229Z,1.75
2019-01-09T10:50:28.339Z,1.57
2019-01-09T10:52:56.463Z,1.67
2019-01-09T10:55:24.568Z,1.15
2019-01-09T10:57:52.715Z,1.37
2019-01-09T11:00:22.067Z,1.30
2019-01-09T11:02:50.162Z,1.20
2019-01-09T11:05:18.306Z,1.07
2019-01-09T11:07:46.444Z,1.42
2019-01-09T11:10:15.292Z,1.12
2019-01-09T11:12:43.437Z,0.80
2019-01-09T11:15:11.732Z,1.25
2019-01-09T11:17:39.897Z,1.12
2019-01-09T11:20:09.935Z,1.72
2019-01-09T11:22:38.054Z,1.42
2019-01-09T11:25:06.879Z,1.05
2019-01-09T11:27:34.990Z,1.07
2019-01-09T11:30:03.154Z,1.10
2019-01-09T11:32:31.287Z,1.10
2019-01-09T11:34:59.443Z,1.60
2019-01-09T11:37:27.555Z,1.20
2019-01-09T11:39:55.686Z,1.80
2019-01-09T11:42:23.819Z,1.45
2019-01-09T11:44:51.958Z,1.82
2019-01-09T11:47:20.103Z,1.65
2019-01-09T11:49:48.211Z,2.02
2019-01-09T11:52:16.365Z,1.65
2019-01-09T11:54:44.498Z,1.30
2019-01-09T11:57:12.666Z,1.32
2019-01-09T11:59:40.823Z,1.52
2019-01-09T12:02:08.944Z,1.30
2019-01-09T12:04:37.111Z,1.17
2019-01-09T12:07:05.224Z,1.55
2019-01-09T12:09:33.378Z,1.00
2019-01-09T12:12:01.527Z,1.02
2019-01-09T12:14:29.695Z,0.75
2019-01-09T12:16:57.813Z,1.30
2019-01-09T12:19:25.937Z,1.10
2019-01-09T12:21:54.075Z,1.02
2019-01-09T12:24:22.235Z,0.80
2019-01-09T12:26:50.374Z,1.20
2019-01-09T12:29:18.487Z,1.00
2019-01-09T12:31:46.737Z,1.65
2019-01-09T12:34:14.867Z,1.45
2019-01-09T12:36:43.232Z,1.30
2019-01-09T12:39:13.400Z,1.00
2019-01-09T12:41:41.192Z,0.70
2019-01-09T12:44:09.450Z,0.90
2019-01-09T12:46:37.570Z,0.80
2019-01-09T12:49:05.721Z,1.50
2019-01-09T12:51:33.850Z,1.00
2019-01-09T12:54:01.962Z,1.00
2019-01-09T12:56:30.131Z,1.25
2019-01-09T12:58:58.253Z,0.85
2019-01-09T13:01:26.373Z,1.22
2019-01-09T13:03:54.500Z,0.93
2019-01-09T13:06:22.751Z,1.05
2019-01-09T13:08:50.916Z,1.25
2019-01-09T13:11:19.095Z,1.10
2019-01-09T13:13:47.279Z,1.40
2019-01-09T13:16:15.410Z,1.20
2019-01-09T13:18:43.516Z,1.32
2019-01-09T13:21:11.667Z,1.40
2019-01-09T13:23:39.777Z,1.40
2019-01-09T13:26:08.015Z,1.32
2019-01-09T13:28:36.109Z,0.98
2019-01-09T13:31:04.236Z,1.10
2019-01-09T13:33:32.367Z,1.60
2019-01-09T13:36:00.504Z,0.98
2019-01-09T13:38:28.775Z,1.00
2019-01-09T13:40:56.910Z,0.85
2019-01-09T13:43:25.030Z,0.90
2019-01-09T13:45:53.181Z,1.27
2019-01-09T13:48:21.319Z,1.75
2019-01-09T13:50:51.722Z,1.32
2019-01-09T13:53:19.971Z,1.22
2019-01-09T13:55:48.110Z,1.20
2019-01-09T13:58:16.233Z,1.32
2019-01-09T14:00:44.344Z,1.17
2019-01-09T14:03:12.470Z,1.40
2019-01-09T14:05:40.615Z,1.45
2019-01-09T14:08:09.124Z,1.30
2019-01-09T14:10:37.339Z,1.27
2019-01-09T14:13:05.451Z,1.40
2019-01-09T14:15:33.589Z,1.27
2019-01-09T14:18:01.896Z,1.05
2019-01-09T14:20:30.067Z,2.00
2019-01-09T14:22:58.170Z,1.75
2019-01-09T14:25:26.330Z,1.30
2019-01-09T14:27:54.449Z,1.50
2019-01-09T14:30:27.104Z,1.30
2019-01-09T14:32:55.263Z,1.55
2019-01-09T14:35:23.374Z,1.50
2019-01-09T14:37:51.601Z,1.80
2019-01-09T14:40:19.746Z,1.25
2019-01-09T14:42:47.902Z,1.15
2019-01-09T14:45:16.194Z,1.37
2019-01-09T14:47:44.366Z,1.87
2019-01-09T14:50:13.979Z,1.60
2019-01-09T14:52:42.081Z,1.22
2019-01-09T14:55:10.216Z,1.20
2019-01-09T14:57:38.376Z,1.52
2019-01-09T15:00:08.548Z,1.52
2019-01-09T15:02:36.694Z,1.30
2019-01-09T15:05:05.094Z,1.35
2019-01-09T15:07:33.246Z,2.30
2019-01-09T15:10:01.407Z,1.70
2019-01-09T15:12:29.547Z,1.70
2019-01-09T15:14:57.665Z,1.55
2019-01-09T15:17:25.859Z,1.65
2019-01-09T15:19:53.982Z,1.40
2019-01-09T15:22:22.094Z,1.72
2019-01-09T15:24:50.233Z,2.00
2019-01-09T15:27:18.389Z,1.98
2019-01-09T15:29:46.579Z,1.62
2019-01-09T15:32:14.683Z,1.55
2019-01-09T15:34:42.793Z,2.10
2019-01-09T15:37:10.939Z,1.75
2019-01-09T15:39:39.040Z,1.47
2019-01-09T15:42:07.176Z,3.02
2019-01-09T15:44:35.283Z,2.00
2019-01-09T15:47:03.758Z,1.42
2019-01-09T15:49:31.882Z,1.50
2019-01-09T15:52:00.094Z,1.95
2019-01-09T15:54:28.235Z,1.65
2019-01-09T15:56:56.384Z,1.50
2019-01-09T15:59:24.515Z,1.45
2019-01-09T16:01:52.624Z,1.87
2019-01-09T16:04:20.743Z,1.77
2019-01-09T16:06:48.879Z,2.33
2019-01-09T16:09:16.978Z,2.15
2019-01-09T16:11:45.276Z,2.50
2019-01-09T16:14:13.379Z,1.70
2019-01-09T16:16:41.530Z,1.82
2019-01-09T16:19:09.635Z,1.65
2019-01-09T16:21:37.757Z,2.10
2019-01-09T16:24:05.998Z,2.10
2019-01-09T16:26:34.118Z,1.70
2019-01-09T16:29:02.301Z,1.40
2019-01-09T16:31:40.057Z,1.85
2019-01-09T16:34:08.212Z,1.55
2019-01-09T16:36:36.742Z,2.62
2019-01-09T16:39:07.713Z,2.12
2019-01-09T16:41:35.867Z,2.20
2019-01-09T16:44:03.976Z,1.80
2019-01-09T16:46:32.135Z,2.15
2019-01-09T16:49:00.268Z,1.95
2019-01-09T16:51:28.411Z,2.40
2019-01-09T16:53:56.529Z,1.80
2019-01-09T16:56:24.642Z,2.55
2019-01-09T16:58:52.775Z,2.67
2019-01-09T17:01:21.008Z,2.67
2019-01-09T17:03:49.159Z,3.83
2019-01-09T17:06:17.374Z,3.15
2019-01-09T17:08:45.939Z,4.50
2019-01-09T17:11:14.532Z,2.87
2019-01-09T17:13:42.687Z,2.33
2019-01-09T17:16:10.819Z,1.85
2019-01-09T17:21:22.719Z,2.52
2019-01-09T17:23:52.309Z,2.15
2019-01-09T17:26:21.767Z,2.52
2019-01-09T17:28:51.268Z,2.10
2019-01-09T17:31:20.756Z,2.47
2019-01-09T17:33:50.674Z,2.52
2019-01-09T18:39:00.957Z,2.50
2019-01-09T18:42:24.577Z,2.35
2019-01-09T18:45:53.280Z,2.70
2019-01-09T18:52:32.555Z,2.50
2019-01-09T18:55:02.027Z,2.30
2019-01-09T18:57:32.186Z,3.15
2019-01-09T19:00:01.763Z,2.65
2019-01-09T19:02:31.193Z,2.55
2019-01-09T19:05:01.561Z,2.08
2019-01-09T19:07:31.127Z,3.15
2019-01-09T19:10:00.568Z,3.72
2019-01-09T19:12:30.035Z,2.85
2019-01-09T19:14:59.769Z,2.50
2019-01-09T19:17:29.294Z,2.55
2019-01-09T19:19:59.357Z,3.20
2019-01-09T19:22:29.336Z,3.22
2019-01-09T19:24:58.808Z,2.60
2019-01-09T19:27:28.683Z,1.90
2019-01-09T19:29:58.158Z,2.22
2019-01-09T19:32:27.860Z,2.60
2019-01-09T19:34:57.462Z,2.70
2019-01-09T19:37:27.619Z,1.90
2019-01-09T19:39:57.011Z,3.12
2019-01-09T19:42:27.065Z,3.10
2019-01-09T19:44:56.469Z,2.05
2019-01-09T19:47:25.923Z,2.25
2019-01-09T19:49:55.351Z,2.87
2019-01-09T19:52:25.219Z,2.40
2019-01-09T19:54:54.710Z,2.60
2019-01-09T19:57:24.168Z,2.45
2019-01-09T19:59:53.642Z,2.25
2019-01-09T20:02:23.085Z,2.80
2019-01-09T20:04:52.581Z,2.87
2019-01-09T20:07:22.016Z,2.45
2019-01-09T20:09:51.765Z,2.40
2019-01-09T20:12:22.691Z,2.75
2019-01-09T20:14:52.179Z,3.00
2019-01-09T20:17:21.664Z,2.87
2019-01-09T20:19:51.072Z,2.72
2019-01-09T20:22:20.676Z,2.87
2019-01-09T20:24:50.082Z,4.25
2019-01-09T20:27:19.585Z,2.52
2019-01-09T20:29:49.054Z,2.60
2019-01-09T20:32:18.491Z,2.80
2019-01-09T20:34:47.970Z,2.77
2019-01-09T20:37:17.407Z,2.42
2019-01-09T20:39:46.893Z,2.47
2019-01-09T20:42:16.330Z,3.00
2019-01-09T20:44:46.009Z,3.12
2019-01-09T20:47:15.438Z,3.25
2019-01-09T20:49:45.026Z,2.85
2019-01-09T20:52:14.653Z,4.30
2019-01-09T20:54:44.115Z,2.80
2019-01-09T20:57:14.547Z,2.87
2019-01-09T20:59:44.053Z,2.70
2019-01-09T21:02:13.509Z,3.17
2019-01-09T21:04:42.970Z,2.95
2019-01-09T21:07:12.515Z,4.42
2019-01-09T21:09:42.060Z,2.10
2019-01-09T21:12:11.599Z,2.25
2019-01-09T21:14:41.099Z,2.60
2019-01-09T21:17:10.665Z,2.70
2019-01-09T21:19:40.105Z,3.00
2019-01-09T21:22:09.577Z,2.10
2019-01-09T21:24:39.009Z,2.35
2019-01-09T21:27:08.477Z,2.55
2019-01-09T21:29:37.919Z,3.00
2019-01-09T21:32:07.504Z,1.85
2019-01-09T21:34:36.978Z,2.30
2019-01-09T21:37:06.437Z,2.85
2019-01-09T21:39:35.908Z,2.90
2019-01-09T21:42:05.760Z,2.58
2019-01-09T21:44:35.224Z,3.30
2019-01-09T21:47:04.765Z,2.22
2019-01-09T21:49:34.572Z,2.47
2019-01-09T21:52:04.017Z,1.92
2019-01-09T21:54:33.450Z,1.77
2019-01-09T21:57:02.915Z,1.90
2019-01-09T21:59:32.365Z,1.92
2019-01-09T22:02:01.841Z,1.80
2019-01-09T22:04:31.303Z,1.65
2019-01-09T22:07:00.759Z,1.75
2019-01-09T22:09:30.212Z,1.80
2019-01-09T22:12:02.589Z,1.60
2019-01-09T22:14:31.625Z,0.90
2019-01-09T22:17:01.077Z,1.50
2019-01-09T22:19:30.536Z,1.80
2019-01-09T22:21:59.975Z,1.37
2019-01-09T22:24:29.437Z,1.37
2019-01-09T22:26:58.900Z,1.45
2019-01-09T22:29:28.367Z,1.37
2019-01-09T22:31:57.801Z,1.30
2019-01-09T22:34:27.278Z,1.10
2019-01-09T22:36:56.730Z,1.07
2019-01-09T22:39:26.180Z,1.52
2019-01-09T22:41:55.652Z,1.37
2019-01-09T22:44:25.122Z,1.20
2019-01-09T22:46:54.597Z,1.30
2019-01-09T22:49:24.051Z,1.15
2019-01-09T22:51:53.539Z,1.42
2019-01-09T22:54:22.978Z,1.25
2019-01-09T22:56:52.464Z,1.20
2019-01-09T22:59:21.905Z,1.00
2019-01-09T23:01:51.463Z,1.02
2019-01-09T23:04:21.487Z,1.10
2019-01-09T23:06:51.161Z,1.25
2019-01-09T23:09:20.631Z,1.10
2019-01-09T23:11:50.070Z,1.00
2019-01-09T23:14:19.543Z,1.00
2019-01-09T23:16:48.981Z,1.05
2019-01-09T23:19:18.611Z,1.27
2019-01-09T23:21:48.107Z,1.22
2019-01-09T23:24:17.542Z,1.42
2019-01-09T23:26:47.021Z,1.22
2019-01-09T23:29:16.476Z,1.20
2019-01-09T23:31:45.946Z,1.20
2019-01-09T23:34:15.393Z,1.02
2019-01-09T23:36:44.861Z,1.00
2019-01-09T23:39:14.404Z,1.20
2019-01-09T23:41:43.885Z,1.20
2019-01-09T23:44:13.345Z,0.75
2019-01-09T23:46:42.933Z,1.12
2019-01-09T23:49:12.387Z,1.10
2019-01-09T23:51:41.829Z,0.88
2019-01-09T23:54:11.298Z,1.22
2019-01-09T23:56:40.744Z,1.07
2019-01-09T23:59:10.209Z,0.95
